UAE5WR KORD-OMDB
Flight info
| Callsign | UAE5WR |
|---|---|
| Flight time | N/A |
| Altitude | 29000 |
| Route | RAYNR DCT BRTMN DCT TAAYZ DCT PECOK DCT 47N080W DCT YVO/N0497F310 J545 MT DCT DORYY/M085F310 DCT 58N050W 59N040W 59N030W 5730N02000W DCT BILTO/N0496F310 DCT BEGID DCT KUGUR DCT DIMLI/N0487F330 DCT DUFFY DCT MAKUX DCT SOSIM L15 KEPAD L151 MID UL612 VEULE DCT TEPRI/N0484F350 DCT POGZI DCT GELTA DCT LUVAL DCT BEGAR DCT TRA DCT GAMSA N871 MADEB N606 OTRES T307 DIRAB DCT RASUG DCT OKLAX DCT SIPAL DCT RODON DCT DIMIS DCT IPTES UL604 SALUN N705 MMA P751 DASUM Y234 FYM/N0484F370 M872 BDB Y214 RAPMA DCT KUVSO DCT KATIT DCT PEKEM M628 RIGIL G783 ELUDA/N0497F350 G783 ASPED Q308 KIPOK Q568 IMPED |
| Aircraft | B77W/H-SDE1E2E3FGHIJ2J3J4J5M1RWXY/LB1D1 |
Departure
| Time | N/A |
|---|---|
| Airport | Chicago O'Hare International Airport (KORD) |
Arrival
| Time | 2026-04-23 13:42 |
|---|---|
| Airport | Dubai International Airport (OMDB) |
| Time | Latitude | Longitude | Altitude | Speed | Heading |
|---|---|---|---|---|---|
| 2026-04-23 12:23 | 23.54019 | 46.71738 | 36893 ft | 557 kts | 97° |
| 2026-04-23 12:23 | 23.53629 | 46.75936 | 36896 ft | 557 kts | 97° |
| 2026-04-23 12:23 | 23.52846 | 46.84324 | 36880 ft | 557 kts | 97° |
| 2026-04-23 12:24 | 23.52064 | 46.92660 | 36869 ft | 556 kts | 97° |
| 2026-04-23 12:24 | 23.51274 | 47.01046 | 36877 ft | 556 kts | 97° |
| 2026-04-23 12:25 | 23.50478 | 47.09434 | 36864 ft | 557 kts | 97° |
| 2026-04-23 12:25 | 23.49677 | 47.17832 | 36859 ft | 557 kts | 97° |
| 2026-04-23 12:26 | 23.48875 | 47.26187 | 36856 ft | 559 kts | 97° |
| 2026-04-23 12:26 | 23.48063 | 47.34604 | 36863 ft | 560 kts | 97° |
| 2026-04-23 12:27 | 23.47244 | 47.43041 | 36860 ft | 561 kts | 97° |
| 2026-04-23 12:27 | 23.46421 | 47.51490 | 36857 ft | 561 kts | 97° |
| 2026-04-23 12:28 | 23.45595 | 47.59954 | 36859 ft | 562 kts | 97° |
| 2026-04-23 12:28 | 23.44775 | 47.68356 | 36838 ft | 563 kts | 97° |
| 2026-04-23 12:29 | 23.43945 | 47.76826 | 36845 ft | 562 kts | 97° |
| 2026-04-23 12:29 | 23.43109 | 47.85293 | 36845 ft | 562 kts | 97° |
| 2026-04-23 12:30 | 23.42269 | 47.93755 | 36838 ft | 562 kts | 97° |
| 2026-04-23 12:30 | 23.41430 | 48.02155 | 36848 ft | 562 kts | 97° |
| 2026-04-23 12:31 | 23.40580 | 48.10619 | 36837 ft | 562 kts | 97° |
| 2026-04-23 12:31 | 23.39727 | 48.19076 | 36826 ft | 562 kts | 97° |
| 2026-04-23 12:32 | 23.38870 | 48.27530 | 36815 ft | 562 kts | 97° |
| 2026-04-23 12:32 | 23.38078 | 48.35931 | 36818 ft | 562 kts | 94° |
| 2026-04-23 12:33 | 23.37716 | 48.44417 | 36827 ft | 562 kts | 92° |
| 2026-04-23 12:33 | 23.37433 | 48.52918 | 36823 ft | 562 kts | 92° |
| 2026-04-23 12:34 | 23.37113 | 48.61427 | 36819 ft | 562 kts | 92° |
| 2026-04-23 12:34 | 23.36761 | 48.69930 | 36822 ft | 562 kts | 92° |
| 2026-04-23 12:35 | 23.36404 | 48.78372 | 36818 ft | 562 kts | 92° |
| 2026-04-23 12:35 | 23.36045 | 48.86864 | 36818 ft | 562 kts | 92° |
| 2026-04-23 12:36 | 23.35683 | 48.95360 | 36815 ft | 561 kts | 93° |
| 2026-04-23 12:36 | 23.35316 | 49.03842 | 36815 ft | 561 kts | 93° |
| 2026-04-23 12:37 | 23.34503 | 49.12211 | 36822 ft | 560 kts | 99° |
| 2026-04-23 12:37 | 23.33254 | 49.20576 | 36807 ft | 560 kts | 100° |
| 2026-04-23 12:38 | 23.31988 | 49.28928 | 36814 ft | 560 kts | 100° |
| 2026-04-23 12:38 | 23.30758 | 49.37294 | 36805 ft | 560 kts | 99° |
| 2026-04-23 12:39 | 23.29556 | 49.45601 | 36782 ft | 559 kts | 99° |
| 2026-04-23 12:39 | 23.28347 | 49.53950 | 36812 ft | 558 kts | 100° |
| 2026-04-23 12:40 | 23.27130 | 49.62285 | 36806 ft | 558 kts | 100° |
| 2026-04-23 12:40 | 23.25916 | 49.70556 | 36813 ft | 557 kts | 100° |
| 2026-04-23 12:41 | 23.24691 | 49.78867 | 36805 ft | 557 kts | 100° |
| 2026-04-23 12:41 | 23.23461 | 49.87184 | 36805 ft | 557 kts | 100° |
| 2026-04-23 12:42 | 23.22227 | 49.95497 | 36807 ft | 557 kts | 100° |
| 2026-04-23 12:42 | 23.20990 | 50.03804 | 36791 ft | 556 kts | 100° |
| 2026-04-23 12:43 | 23.19757 | 50.12051 | 36804 ft | 556 kts | 100° |
| 2026-04-23 12:43 | 23.18511 | 50.20354 | 36806 ft | 557 kts | 100° |
| 2026-04-23 12:44 | 23.17260 | 50.28657 | 36806 ft | 557 kts | 100° |
| 2026-04-23 12:44 | 23.16006 | 50.36952 | 36805 ft | 557 kts | 100° |
| 2026-04-23 12:45 | 23.14747 | 50.45255 | 36815 ft | 557 kts | 100° |
| 2026-04-23 12:45 | 23.13491 | 50.53500 | 36806 ft | 557 kts | 100° |
| 2026-04-23 12:46 | 23.12224 | 50.61795 | 36800 ft | 556 kts | 100° |
| 2026-04-23 12:46 | 23.10953 | 50.70082 | 36809 ft | 556 kts | 100° |
| 2026-04-23 12:47 | 23.09686 | 50.78312 | 36805 ft | 556 kts | 100° |
| 2026-04-23 12:47 | 23.08406 | 50.86596 | 36806 ft | 556 kts | 100° |
| 2026-04-23 12:48 | 23.07124 | 50.94868 | 36809 ft | 556 kts | 100° |
| 2026-04-23 12:48 | 23.05836 | 51.03147 | 36803 ft | 556 kts | 100° |
| 2026-04-23 12:49 | 23.04544 | 51.11422 | 36776 ft | 556 kts | 100° |
| 2026-04-23 12:49 | 23.03258 | 51.19632 | 36814 ft | 555 kts | 100° |
| 2026-04-23 12:50 | 23.01959 | 51.27894 | 36800 ft | 555 kts | 100° |
| 2026-04-23 12:50 | 23.00655 | 51.36158 | 36805 ft | 555 kts | 100° |
| 2026-04-23 12:51 | 22.99355 | 51.44368 | 36798 ft | 556 kts | 100° |
| 2026-04-23 12:51 | 22.98042 | 51.52634 | 36797 ft | 556 kts | 100° |
| 2026-04-23 12:52 | 22.96726 | 51.60890 | 36794 ft | 556 kts | 100° |
| 2026-04-23 12:52 | 22.95404 | 51.69156 | 36789 ft | 556 kts | 100° |
| 2026-04-23 12:53 | 22.94077 | 51.77420 | 36791 ft | 556 kts | 100° |
| 2026-04-23 12:53 | 22.92755 | 51.85630 | 36780 ft | 556 kts | 100° |
| 2026-04-23 12:54 | 22.91419 | 51.93895 | 36781 ft | 556 kts | 100° |
| 2026-04-23 12:54 | 22.90080 | 52.02153 | 36781 ft | 556 kts | 100° |
| 2026-04-23 12:55 | 22.88746 | 52.10354 | 36780 ft | 556 kts | 100° |
| 2026-04-23 12:55 | 22.87400 | 52.18601 | 36776 ft | 556 kts | 100° |
| 2026-04-23 12:56 | 22.86049 | 52.26851 | 36757 ft | 556 kts | 100° |
| 2026-04-23 12:56 | 22.84694 | 52.35095 | 36775 ft | 555 kts | 100° |
| 2026-04-23 12:57 | 22.83345 | 52.43283 | 36769 ft | 555 kts | 100° |
| 2026-04-23 12:57 | 22.82237 | 52.51562 | 36757 ft | 555 kts | 92° |
| 2026-04-23 12:58 | 22.82023 | 52.59911 | 36761 ft | 554 kts | 89° |
| 2026-04-23 12:58 | 22.81889 | 52.68263 | 36761 ft | 554 kts | 90° |
| 2026-04-23 12:59 | 22.81707 | 52.76563 | 36768 ft | 554 kts | 90° |
| 2026-04-23 12:59 | 22.81486 | 52.84906 | 36756 ft | 554 kts | 90° |
| 2026-04-23 13:00 | 22.81253 | 52.93265 | 36753 ft | 554 kts | 90° |
| 2026-04-23 13:00 | 22.81021 | 53.01598 | 36746 ft | 554 kts | 90° |
| 2026-04-23 13:01 | 22.80788 | 53.09886 | 36755 ft | 553 kts | 90° |
| 2026-04-23 13:01 | 22.80550 | 53.18215 | 36744 ft | 553 kts | 90° |
| 2026-04-23 13:02 | 22.80308 | 53.26553 | 36752 ft | 553 kts | 90° |
| 2026-04-23 13:02 | 22.80061 | 53.34891 | 36743 ft | 554 kts | 90° |
| 2026-04-23 13:03 | 22.79812 | 53.43172 | 36746 ft | 553 kts | 90° |
| 2026-04-23 13:03 | 22.79555 | 53.51503 | 36742 ft | 553 kts | 90° |
| 2026-04-23 13:04 | 22.79296 | 53.59836 | 36734 ft | 553 kts | 90° |
| 2026-04-23 13:04 | 22.79032 | 53.68169 | 36733 ft | 553 kts | 90° |
| 2026-04-23 13:05 | 22.78765 | 53.76444 | 36741 ft | 553 kts | 90° |
| 2026-04-23 13:05 | 22.78493 | 53.84773 | 36731 ft | 553 kts | 90° |
| 2026-04-23 13:06 | 22.78189 | 53.97246 | 36734 ft | 550 kts | 85° |
| 2026-04-23 13:07 | 22.79073 | 54.05436 | 36731 ft | 545 kts | 73° |
| 2026-04-23 13:07 | 22.80746 | 54.13376 | 36733 ft | 544 kts | 73° |
| 2026-04-23 13:08 | 22.82434 | 54.21373 | 36735 ft | 544 kts | 73° |
| 2026-04-23 13:08 | 22.84074 | 54.29389 | 36735 ft | 545 kts | 73° |
| 2026-04-23 13:09 | 22.85687 | 54.37408 | 36730 ft | 544 kts | 74° |
| 2026-04-23 13:09 | 22.87283 | 54.45374 | 36736 ft | 544 kts | 74° |
| 2026-04-23 13:10 | 22.88888 | 54.53381 | 36744 ft | 544 kts | 73° |
| 2026-04-23 13:10 | 22.90490 | 54.61386 | 36735 ft | 543 kts | 74° |
| 2026-04-23 13:11 | 22.92089 | 54.69403 | 36735 ft | 543 kts | 74° |
| 2026-04-23 13:11 | 22.93683 | 54.77414 | 36746 ft | 543 kts | 74° |
| 2026-04-23 13:12 | 22.95272 | 54.85425 | 36741 ft | 543 kts | 74° |
| 2026-04-23 13:12 | 22.96846 | 54.93381 | 36743 ft | 543 kts | 74° |
| 2026-04-23 13:13 | 22.98427 | 55.01396 | 36741 ft | 543 kts | 74° |
| 2026-04-23 13:13 | 23.00002 | 55.09405 | 36742 ft | 543 kts | 74° |
| 2026-04-23 13:14 | 23.01768 | 55.17321 | 36734 ft | 533 kts | 62° |
| 2026-04-23 13:14 | 23.03569 | 55.20763 | 36744 ft | 517 kts | 44° |
| 2026-04-23 13:14 | 23.06053 | 55.23494 | 36762 ft | 504 kts | 31° |
| 2026-04-23 13:15 | 23.11994 | 55.27096 | 36752 ft | 483 kts | 7° |
| 2026-04-23 13:15 | 23.18516 | 55.28870 | 36759 ft | 486 kts | 6° |
| 2026-04-23 13:16 | 23.25089 | 55.30705 | 36754 ft | 486 kts | 7° |
| 2026-04-23 13:16 | 23.31565 | 55.32602 | 36746 ft | 479 kts | 7° |
| 2026-04-23 13:17 | 23.37953 | 55.34484 | 36758 ft | 479 kts | 7° |
| 2026-04-23 13:17 | 23.44376 | 55.36373 | 36775 ft | 479 kts | 7° |
| 2026-04-23 13:18 | 23.50826 | 55.38270 | 36759 ft | 480 kts | 7° |
| 2026-04-23 13:18 | 23.57271 | 55.40177 | 36762 ft | 481 kts | 7° |
| 2026-04-23 13:19 | 23.63734 | 55.42100 | 36765 ft | 482 kts | 7° |
| 2026-04-23 13:19 | 23.70162 | 55.44015 | 36763 ft | 482 kts | 8° |
| 2026-04-23 13:20 | 23.76643 | 55.45946 | 36764 ft | 483 kts | 8° |
| 2026-04-23 13:20 | 23.83134 | 55.47882 | 36767 ft | 484 kts | 8° |
| 2026-04-23 13:20 | 23.86382 | 55.48851 | 36646 ft | 485 kts | 8° |
| 2026-04-23 13:21 | 23.89629 | 55.49813 | 35771 ft | 493 kts | 8° |
| 2026-04-23 13:21 | 23.92934 | 55.50795 | 34936 ft | 493 kts | 9° |
| 2026-04-23 13:21 | 23.96254 | 55.51809 | 34001 ft | 498 kts | 12° |
| 2026-04-23 13:21 | 23.99489 | 55.53223 | 33083 ft | 505 kts | 21° |
| 2026-04-23 13:22 | 24.02571 | 55.55108 | 32119 ft | 510 kts | 27° |
| 2026-04-23 13:22 | 24.05453 | 55.57379 | 31022 ft | 511 kts | 36° |
| 2026-04-23 13:22 | 24.08058 | 55.59961 | 30293 ft | 495 kts | 38° |
| 2026-04-23 13:22 | 24.10529 | 55.62494 | 29616 ft | 485 kts | 38° |
| 2026-04-23 13:23 | 24.12999 | 55.65011 | 28932 ft | 487 kts | 38° |
| 2026-04-23 13:23 | 24.15510 | 55.67539 | 28281 ft | 495 kts | 38° |
| 2026-04-23 13:23 | 24.18045 | 55.70064 | 27640 ft | 502 kts | 38° |
| 2026-04-23 13:23 | 24.20629 | 55.72631 | 26990 ft | 500 kts | 38° |
| 2026-04-23 13:24 | 24.23198 | 55.75180 | 26343 ft | 496 kts | 38° |
| 2026-04-23 13:24 | 24.25743 | 55.77707 | 25705 ft | 492 kts | 39° |
| 2026-04-23 13:24 | 24.28268 | 55.80215 | 25084 ft | 488 kts | 39° |
| 2026-04-23 13:24 | 24.30776 | 55.82707 | 24429 ft | 485 kts | 39° |
| 2026-04-23 13:25 | 24.33267 | 55.85184 | 23806 ft | 482 kts | 40° |
| 2026-04-23 13:25 | 24.35741 | 55.87646 | 23126 ft | 480 kts | 40° |
| 2026-04-23 13:25 | 24.38210 | 55.90105 | 22432 ft | 477 kts | 40° |
| 2026-04-23 13:25 | 24.40619 | 55.92508 | 21802 ft | 473 kts | 40° |
| 2026-04-23 13:26 | 24.43009 | 55.94899 | 21176 ft | 460 kts | 40° |
| 2026-04-23 13:26 | 24.45370 | 55.97260 | 20582 ft | 457 kts | 40° |
| 2026-04-23 13:26 | 24.47733 | 55.99625 | 19995 ft | 453 kts | 40° |
| 2026-04-23 13:26 | 24.50026 | 56.01918 | 19429 ft | 450 kts | 40° |
| 2026-04-23 13:27 | 24.52333 | 56.04229 | 18824 ft | 448 kts | 40° |
| 2026-04-23 13:27 | 24.54591 | 56.06490 | 18229 ft | 431 kts | 41° |
| 2026-04-23 13:27 | 24.56775 | 56.08675 | 17609 ft | 423 kts | 41° |
| 2026-04-23 13:27 | 24.59049 | 56.10667 | 17023 ft | 417 kts | 31° |
| 2026-04-23 13:28 | 24.61614 | 56.12112 | 16440 ft | 413 kts | 20° |
| 2026-04-23 13:28 | 24.64343 | 56.13048 | 15854 ft | 409 kts | 9° |
| 2026-04-23 13:28 | 24.67147 | 56.13530 | 15283 ft | 407 kts | 6° |
| 2026-04-23 13:28 | 24.69911 | 56.13977 | 14718 ft | 405 kts | 6° |
| 2026-04-23 13:29 | 24.72682 | 56.14030 | 13888 ft | 401 kts | 347° |
| 2026-04-23 13:29 | 24.75236 | 56.12886 | 13156 ft | 396 kts | 322° |
| 2026-04-23 13:29 | 24.77193 | 56.10810 | 12544 ft | 387 kts | 306° |
| 2026-04-23 13:29 | 24.78843 | 56.08481 | 11960 ft | 385 kts | 305° |
| 2026-04-23 13:30 | 24.80469 | 56.06156 | 11382 ft | 383 kts | 305° |
| 2026-04-23 13:30 | 24.82075 | 56.03848 | 11126 ft | 372 kts | 305° |
| 2026-04-23 13:30 | 24.83614 | 56.01641 | 11064 ft | 357 kts | 305° |
| 2026-04-23 13:30 | 24.85060 | 55.99574 | 10856 ft | 326 kts | 304° |
| 2026-04-23 13:31 | 24.86392 | 55.97672 | 10555 ft | 302 kts | 304° |
| 2026-04-23 13:31 | 24.87625 | 55.95911 | 10395 ft | 289 kts | 304° |
| 2026-04-23 13:31 | 24.88831 | 55.94185 | 10271 ft | 281 kts | 303° |
| 2026-04-23 13:31 | 24.90017 | 55.92480 | 10130 ft | 283 kts | 303° |
| 2026-04-23 13:32 | 24.91213 | 55.90762 | 10030 ft | 284 kts | 304° |
| 2026-04-23 13:32 | 24.92435 | 55.89013 | 9670 ft | 290 kts | 304° |
| 2026-04-23 13:32 | 24.93668 | 55.87253 | 9297 ft | 290 kts | 304° |
| 2026-04-23 13:32 | 24.94900 | 55.85493 | 8938 ft | 290 kts | 304° |
| 2026-04-23 13:33 | 24.96128 | 55.83737 | 8586 ft | 289 kts | 304° |
| 2026-04-23 13:33 | 24.97355 | 55.81983 | 8232 ft | 289 kts | 304° |
| 2026-04-23 13:33 | 24.98565 | 55.80249 | 7860 ft | 280 kts | 304° |
| 2026-04-23 13:33 | 24.99723 | 55.78593 | 7529 ft | 275 kts | 305° |
| 2026-04-23 13:34 | 25.00885 | 55.76931 | 7200 ft | 275 kts | 304° |
| 2026-04-23 13:34 | 25.02064 | 55.75241 | 6881 ft | 280 kts | 304° |
| 2026-04-23 13:34 | 25.03258 | 55.73527 | 6536 ft | 283 kts | 304° |
| 2026-04-23 13:34 | 25.04452 | 55.71818 | 6296 ft | 279 kts | 304° |
| 2026-04-23 13:35 | 25.05622 | 55.70144 | 6130 ft | 272 kts | 304° |
| 2026-04-23 13:35 | 25.06758 | 55.68517 | 5971 ft | 265 kts | 304° |
| 2026-04-23 13:35 | 25.07880 | 55.66906 | 5617 ft | 260 kts | 304° |
| 2026-04-23 13:35 | 25.08938 | 55.65391 | 5276 ft | 246 kts | 304° |
| 2026-04-23 13:36 | 25.09948 | 55.63932 | 4890 ft | 233 kts | 302° |
| 2026-04-23 13:36 | 25.10834 | 55.62496 | 4549 ft | 219 kts | 299° |
| 2026-04-23 13:36 | 25.11616 | 55.61124 | 4247 ft | 204 kts | 298° |
| 2026-04-23 13:36 | 25.12344 | 55.59817 | 3982 ft | 197 kts | 298° |
| 2026-04-23 13:37 | 25.13052 | 55.58541 | 3759 ft | 191 kts | 297° |
| 2026-04-23 13:37 | 25.13739 | 55.57299 | 3511 ft | 187 kts | 297° |
| 2026-04-23 13:37 | 25.14420 | 55.56069 | 3298 ft | 189 kts | 297° |
| 2026-04-23 13:37 | 25.15112 | 55.54816 | 3054 ft | 193 kts | 298° |
| 2026-04-23 13:38 | 25.15816 | 55.53542 | 2803 ft | 194 kts | 300° |
| 2026-04-23 13:38 | 25.16520 | 55.52272 | 2566 ft | 194 kts | 300° |
| 2026-04-23 13:38 | 25.17216 | 55.51013 | 2296 ft | 190 kts | 300° |
| 2026-04-23 13:38 | 25.17887 | 55.49806 | 2095 ft | 182 kts | 301° |
| 2026-04-23 13:39 | 25.18544 | 55.48622 | 1864 ft | 183 kts | 302° |
| 2026-04-23 13:39 | 25.19194 | 55.47445 | 1630 ft | 178 kts | 302° |
| 2026-04-23 13:39 | 25.19821 | 55.46311 | 1389 ft | 165 kts | 303° |
| 2026-04-23 13:39 | 25.20389 | 55.45285 | 1209 ft | 150 kts | 304° |
| 2026-04-23 13:40 | 25.20944 | 55.44286 | 1037 ft | 155 kts | 302° |
| 2026-04-23 13:40 | 25.21505 | 55.43273 | 838 ft | 153 kts | 303° |
| 2026-04-23 13:40 | 25.22044 | 55.42290 | 623 ft | 143 kts | 303° |
| 2026-04-23 13:40 | 25.22513 | 55.41379 | 369 ft | 140 kts | 308° |
| 2026-04-23 13:41 | 25.23025 | 55.40480 | 247 ft | 135 kts | 310° |
| 2026-04-23 13:41 | 25.23532 | 55.39585 | 98 ft | 143 kts | 305° |
| 2026-04-23 13:41 | 25.24023 | 55.38697 | 30 ft | 122 kts | 303° |
| 2026-04-23 13:41 | 25.24406 | 55.38021 | 30 ft | 82 kts | 302° |
| 2026-04-23 13:42 | 25.24628 | 55.37615 | 27 ft | 47 kts | 301° |
| 2026-04-23 13:42 | 25.24766 | 55.37351 | 28 ft | 30 kts | 289° |
| 2026-04-23 13:42 | 25.24782 | 55.37161 | 29 ft | 19 kts | 272° |
| 2026-04-23 13:42 | 25.24784 | 55.37107 | 28 ft | 1 kts | 272° |
| 2026-04-23 13:43 | 25.24784 | 55.37093 | 28 ft | 2 kts | 272° |
| 2026-04-23 13:43 | 25.24784 | 55.37091 | 28 ft | 1 kts | 272° |
| 2026-04-23 13:43 | 25.24785 | 55.37078 | 27 ft | 3 kts | 272° |
| 2026-04-23 13:43 | 25.24787 | 55.37032 | 27 ft | 12 kts | 272° |
| 2026-04-23 13:44 | 25.24748 | 55.36946 | 26 ft | 14 kts | 214° |
| 2026-04-23 13:44 | 25.24668 | 55.36892 | 29 ft | 14 kts | 211° |
| 2026-04-23 13:44 | 25.24586 | 55.36838 | 30 ft | 14 kts | 211° |
| 2026-04-23 13:44 | 25.24505 | 55.36784 | 29 ft | 14 kts | 211° |
| 2026-04-23 13:45 | 25.24452 | 55.36747 | 29 ft | 14 kts | 216° |
| 2026-04-23 13:45 | 25.24383 | 55.36632 | 30 ft | 14 kts | 253° |
| 2026-04-23 13:45 | 25.24374 | 55.36528 | 30 ft | 14 kts | 276° |
| 2026-04-23 13:45 | 25.24407 | 55.36431 | 31 ft | 14 kts | 300° |
| 2026-04-23 13:46 | 25.24450 | 55.36354 | 28 ft | 6 kts | 319° |
| 2026-04-23 13:46 | 25.24492 | 55.36362 | 29 ft | 7 kts | 33° |
| 2026-04-23 13:46 | 25.24534 | 55.36391 | 31 ft | 7 kts | 32° |
| 2026-04-23 13:46 | 25.24576 | 55.36419 | 29 ft | 5 kts | 32° |
| 2026-04-23 13:47 | 25.24593 | 55.36431 | 30 ft | 1 kts | 31° |